createdAt,value
2023-05-13T00:02:38.096Z,100431.44
2023-05-13T00:05:41.027Z,100430.31
2023-05-13T00:08:43.736Z,100424.72
2023-05-13T00:11:47.974Z,100429.97
2023-05-13T00:14:50.696Z,100427.19
2023-05-13T00:17:53.518Z,100429.84
2023-05-13T00:20:57.012Z,100433.38
2023-05-13T00:23:59.679Z,100433.38
2023-05-13T00:27:03.681Z,100433.22
2023-05-13T00:30:08.240Z,100430.72
2023-05-13T00:33:11.007Z,100422.50
2023-05-13T00:36:14.413Z,100435.19
2023-05-13T00:39:17.061Z,100428.81
2023-05-13T00:42:21.091Z,100405.03
2023-05-13T00:45:23.738Z,100429.53
2023-05-13T00:48:26.824Z,100424.25
2023-05-13T00:51:29.645Z,100422.63
2023-05-13T00:54:32.430Z,100425.59
2023-05-13T00:57:36.879Z,100422.97
2023-05-13T01:00:53.436Z,100428.53
2023-05-13T01:04:05.042Z,100438.91
2023-05-13T01:07:14.656Z,100432.69
2023-05-13T01:10:24.915Z,100438.13
2023-05-13T01:13:32.940Z,100431.66
2023-05-13T01:16:47.328Z,100433.78
2023-05-13T01:19:55.508Z,100438.28
2023-05-13T01:22:59.621Z,100439.47
2023-05-13T01:26:02.428Z,100432.84
2023-05-13T01:29:05.123Z,100442.91
2023-05-13T01:32:09.657Z,100438.59
2023-05-13T01:35:13.337Z,100448.72
2023-05-13T01:38:17.984Z,100444.31
2023-05-13T01:41:20.841Z,100445.44
2023-05-13T01:44:23.498Z,100446.31
2023-05-13T01:47:26.285Z,100437.59
2023-05-13T01:50:29.013Z,100439.34
2023-05-13T01:53:33.093Z,100433.19
2023-05-13T01:56:36.300Z,100441.63
2023-05-13T01:59:39.122Z,100448.16
2023-05-13T02:02:41.951Z,100430.22
2023-05-13T02:05:44.820Z,100435.63
2023-05-13T02:08:48.866Z,100438.34
2023-05-13T02:11:51.994Z,100451.09
2023-05-13T02:14:56.906Z,100435.84
2023-05-13T02:17:59.685Z,100438.47
2023-05-13T02:21:02.373Z,100442.16
2023-05-13T02:24:07.416Z,100432.19
2023-05-13T02:27:12.599Z,100429.53
2023-05-13T02:30:15.491Z,100439.56
2023-05-13T02:33:18.150Z,100439.56
2023-05-13T02:36:20.864Z,100438.94
2023-05-13T02:39:24.884Z,100441.88
2023-05-13T02:42:27.594Z,100440.38
2023-05-13T02:45:30.259Z,100425.78
2023-05-13T02:48:32.906Z,100428.94
2023-05-13T02:51:37.743Z,100426.41
2023-05-13T02:54:41.790Z,100425.72
2023-05-13T02:57:44.710Z,100432.31
2023-05-13T03:00:47.345Z,100442.41
2023-05-13T03:03:50.493Z,100439.34
2023-05-13T03:06:53.427Z,100435.75
2023-05-13T03:09:57.789Z,100447.47
2023-05-13T03:13:00.441Z,100441.38
2023-05-13T03:16:03.685Z,100448.78
2023-05-13T03:19:06.401Z,100447.09
2023-05-13T03:22:09.078Z,100446.34
2023-05-13T03:25:15.600Z,100449.22
2023-05-13T03:28:18.298Z,100446.50
2023-05-13T03:31:21.017Z,100456.31
2023-05-13T03:34:23.727Z,100450.09
2023-05-13T03:37:26.509Z,100450.09
2023-05-13T03:40:30.622Z,100450.16
2023-05-13T03:43:33.920Z,100452.88
2023-05-13T03:46:36.703Z,100453.75
2023-05-13T03:49:39.416Z,100451.28
2023-05-13T03:52:42.495Z,100449.63
2023-05-13T03:55:48.151Z,100453.16
2023-05-13T03:58:50.798Z,100456.97
2023-05-13T04:01:53.468Z,100458.88
2023-05-13T04:04:56.463Z,100462.53
2023-05-13T04:07:59.194Z,100462.53
2023-05-13T04:11:06.270Z,100459.75
2023-05-13T04:14:08.912Z,100466.84
2023-05-13T04:17:11.677Z,100462.41
2023-05-13T04:20:14.514Z,100465.84
2023-05-13T04:23:17.315Z,100465.91
2023-05-13T04:26:27.470Z,100485.03
2023-05-13T04:29:30.181Z,100482.16
2023-05-13T04:32:33.108Z,100482.16
2023-05-13T04:35:35.825Z,100489.22
2023-05-13T04:38:38.541Z,100480.16
2023-05-13T04:41:42.785Z,100482.75
2023-05-13T04:44:45.717Z,100478.22
2023-05-13T04:47:48.433Z,100484.41
2023-05-13T04:50:52.399Z,100493.25
2023-05-13T04:53:55.513Z,100495.16
2023-05-13T04:56:59.542Z,100496.66
2023-05-13T05:00:02.547Z,100499.00
2023-05-13T05:03:05.733Z,100507.66
2023-05-13T05:06:08.634Z,100506.38
2023-05-13T05:09:11.436Z,100503.50
2023-05-13T05:12:15.656Z,100508.72
2023-05-13T05:15:18.344Z,100503.44
2023-05-13T05:18:21.063Z,100513.63
2023-05-13T05:21:24.291Z,100511.19
2023-05-13T05:24:27.049Z,100507.50
2023-05-13T05:27:31.116Z,100512.09
2023-05-13T05:30:39.414Z,100515.22
2023-05-13T05:33:42.687Z,100512.63
2023-05-13T05:36:45.380Z,100516.09
2023-05-13T05:39:48.383Z,100516.19
2023-05-13T05:42:52.474Z,100515.06
2023-05-13T05:45:55.287Z,100518.72
2023-05-13T05:48:58.085Z,100516.91
2023-05-13T05:52:00.729Z,100508.41
2023-05-13T05:55:04.126Z,100518.94
2023-05-13T05:58:10.930Z,100513.28
2023-05-13T06:01:13.967Z,100510.94
2023-05-13T06:04:17.508Z,100512.19
2023-05-13T06:07:20.277Z,100509.25
2023-05-13T06:10:23.227Z,100510.78
2023-05-13T06:13:27.480Z,100506.63
2023-05-13T06:16:30.334Z,100511.53
2023-05-13T06:19:37.546Z,100517.66
2023-05-13T06:22:40.930Z,100509.66
2023-05-13T06:25:43.631Z,100496.38
2023-05-13T06:28:50.685Z,100489.44
2023-05-13T06:31:53.515Z,100490.84
2023-05-13T06:34:56.192Z,100483.94
2023-05-13T06:37:58.837Z,100476.81
2023-05-13T06:41:01.508Z,100468.78
2023-05-13T06:44:07.413Z,100471.19
2023-05-13T06:47:14.638Z,100461.19
2023-05-13T06:50:17.766Z,100463.50
2023-05-13T06:53:20.440Z,100463.38
2023-05-13T06:56:23.937Z,100475.56
2023-05-13T06:59:28.134Z,100469.66
2023-05-13T07:02:31.014Z,100473.56
2023-05-13T07:05:34.037Z,100462.50
2023-05-13T07:08:36.814Z,100467.22
2023-05-13T07:11:39.994Z,100466.31
2023-05-13T07:14:45.253Z,100460.06
2023-05-13T07:17:48.128Z,100460.25
2023-05-13T07:20:53.264Z,100456.56
2023-05-13T07:23:55.950Z,100453.09
2023-05-13T07:26:58.676Z,100450.59
2023-05-13T07:30:02.796Z,100448.75
2023-05-13T07:33:05.905Z,100452.97
2023-05-13T07:36:08.792Z,100438.75
2023-05-13T07:39:12.049Z,100430.44
2023-05-13T07:42:15.321Z,100434.75
2023-05-13T07:45:19.484Z,100439.28
2023-05-13T07:48:24.520Z,100438.09
2023-05-13T07:51:27.294Z,100434.63
2023-05-13T07:54:29.995Z,100428.13
2023-05-13T07:57:32.906Z,100425.66
2023-05-13T08:00:37.821Z,100432.75
2023-05-13T08:03:41.272Z,100430.34
2023-05-13T08:06:44.086Z,100429.91
2023-05-13T08:09:46.872Z,100435.25
2023-05-13T08:12:53.550Z,100430.16
2023-05-13T08:15:57.683Z,100435.34
2023-05-13T08:19:01.604Z,100434.38
2023-05-13T08:22:06.833Z,100438.56
2023-05-13T08:25:11.216Z,100430.22
2023-05-13T08:28:14.071Z,100428.72
2023-05-13T08:31:18.197Z,100423.66
2023-05-13T08:34:21.049Z,100419.94
2023-05-13T08:37:23.960Z,100418.59
2023-05-13T08:40:26.787Z,100413.38
2023-05-13T08:43:31.137Z,100416.53
2023-05-13T08:46:38.123Z,100405.69
2023-05-13T08:49:41.282Z,100411.50
2023-05-13T08:52:44.934Z,100416.44
2023-05-13T08:55:49.619Z,100410.25
2023-05-13T08:58:52.363Z,100404.88
2023-05-13T09:01:56.861Z,100406.31
2023-05-13T09:05:03.843Z,100410.84
2023-05-13T09:08:10.126Z,100406.44
2023-05-13T09:11:13.066Z,100414.69
2023-05-13T09:14:20.141Z,100415.25
2023-05-13T09:17:24.226Z,100414.66
2023-05-13T09:20:27.136Z,100403.72
2023-05-13T09:23:30.353Z,100399.22
2023-05-13T09:26:34.111Z,100406.94
2023-05-13T09:29:37.736Z,100401.72
2023-05-13T09:32:43.225Z,100405.16
2023-05-13T09:35:53.823Z,100408.06
2023-05-13T09:38:56.623Z,100403.09
2023-05-13T09:41:59.451Z,100400.25
2023-05-13T09:45:07.284Z,100397.78
2023-05-13T09:48:11.501Z,100396.16
2023-05-13T09:51:16.410Z,100395.41
2023-05-13T09:54:19.268Z,100408.03
2023-05-13T09:57:22.138Z,100398.91
2023-05-13T10:00:32.175Z,100392.94
2023-05-13T10:03:37.356Z,100397.19
2023-05-13T10:06:40.434Z,100394.53
2023-05-13T10:09:44.665Z,100392.41
2023-05-13T10:12:48.600Z,100388.38
2023-05-13T10:15:52.955Z,100383.56
2023-05-13T10:18:58.044Z,100379.56
2023-05-13T10:22:01.537Z,100379.38
2023-05-13T10:25:05.114Z,100382.88
2023-05-13T10:28:07.818Z,100389.00
2023-05-13T10:31:10.505Z,100375.22
2023-05-13T10:34:14.634Z,100381.06
2023-05-13T10:37:46.786Z,100379.13
2023-05-13T10:41:13.076Z,100376.03
2023-05-13T10:44:15.966Z,100381.88
2023-05-13T10:47:18.676Z,100370.47
2023-05-13T10:50:27.099Z,100373.75
2023-05-13T10:53:32.132Z,100380.31
2023-05-13T10:56:34.889Z,100380.88
2023-05-13T10:59:38.843Z,100374.13
2023-05-13T11:02:41.757Z,100356.69
2023-05-13T11:05:48.148Z,100359.19
2023-05-13T11:08:55.753Z,100364.06
2023-05-13T11:12:00.424Z,100369.13
2023-05-13T11:15:03.186Z,100369.28
2023-05-13T11:18:07.256Z,100349.09
2023-05-13T11:21:11.576Z,100351.09
2023-05-13T11:24:19.488Z,100344.03
2023-05-13T11:27:22.398Z,100337.19
2023-05-13T11:30:27.230Z,100343.03
2023-05-13T11:34:10.557Z,100327.16
2023-05-13T11:37:15.210Z,100330.81
2023-05-13T11:40:23.540Z,100325.88
2023-05-13T11:43:27.568Z,100325.41
2023-05-13T11:46:30.459Z,100320.91
2023-05-13T11:49:34.733Z,100328.59
2023-05-13T11:52:39.243Z,100324.53
2023-05-13T11:55:41.910Z,100335.06
2023-05-13T11:58:44.724Z,100334.50
2023-05-13T12:01:47.611Z,100322.06
2023-05-13T12:04:51.688Z,100323.13
2023-05-13T12:07:59.027Z,100332.75
2023-05-13T12:11:01.979Z,100332.09
2023-05-13T12:14:05.177Z,100328.22
2023-05-13T12:17:07.987Z,100319.09
2023-05-13T12:20:12.973Z,100325.69
2023-05-13T12:23:17.116Z,100324.50
2023-05-13T12:26:20.275Z,100319.00
2023-05-13T12:29:22.937Z,100322.34
2023-05-13T12:32:25.900Z,100322.06
2023-05-13T12:35:28.753Z,100341.81
2023-05-13T12:38:33.517Z,100335.81
2023-05-13T12:41:37.270Z,100328.59
2023-05-13T12:44:40.178Z,100333.22
2023-05-13T12:47:49.856Z,100336.63
2023-05-13T12:50:52.859Z,100337.72
2023-05-13T12:53:58.329Z,100322.13
2023-05-13T12:57:01.048Z,100328.81
2023-05-13T13:00:04.841Z,100328.31
2023-05-13T13:03:08.004Z,100337.16
2023-05-13T13:06:11.878Z,100307.19
2023-05-13T13:09:16.603Z,100332.81
2023-05-13T13:12:19.354Z,100337.91
2023-05-13T13:15:22.502Z,100348.22
2023-05-13T13:18:25.750Z,100345.09
2023-05-13T13:21:28.782Z,100328.53
2023-05-13T13:24:32.838Z,100345.56
2023-05-13T13:27:35.829Z,100331.63
2023-05-13T13:30:39.342Z,100333.09
2023-05-13T13:33:42.022Z,100330.03
2023-05-13T13:36:45.172Z,100324.66
2023-05-13T13:39:49.389Z,100333.25
2023-05-13T13:42:52.143Z,100327.59
2023-05-13T13:45:54.881Z,100327.13
2023-05-13T13:48:57.592Z,100309.97
2023-05-13T13:52:00.531Z,100305.47
2023-05-13T13:55:05.243Z,100307.19
2023-05-13T13:58:08.052Z,100318.81
2023-05-13T14:01:10.889Z,100321.59
2023-05-13T14:04:16.583Z,100327.84
2023-05-13T14:07:19.262Z,100332.66
2023-05-13T14:10:23.678Z,100321.63
2023-05-13T14:13:26.542Z,100345.59
2023-05-13T14:16:29.389Z,100345.34
2023-05-13T14:19:32.324Z,100347.00
2023-05-13T14:22:35.016Z,100352.88
2023-05-13T14:25:39.246Z,100367.19
2023-05-13T14:28:42.146Z,100387.44
2023-05-13T14:31:44.851Z,100396.97
2023-05-13T14:34:47.539Z,100401.09
2023-05-13T14:37:50.275Z,100403.50
2023-05-13T14:40:55.666Z,100404.03
2023-05-13T14:43:58.355Z,100406.50
2023-05-13T14:47:01.219Z,100400.84
2023-05-13T14:50:04.409Z,100392.78
2023-05-13T14:53:07.229Z,100386.75
2023-05-13T14:56:11.381Z,100384.75
2023-05-13T14:59:14.141Z,100390.38
2023-05-13T15:02:17.429Z,100384.97
2023-05-13T15:05:20.339Z,100383.97
2023-05-13T15:08:23.322Z,100384.22
2023-05-13T15:11:28.856Z,100364.06
2023-05-13T15:14:31.558Z,100347.81
2023-05-13T15:17:34.488Z,100352.13
2023-05-13T15:20:37.212Z,100342.13
2023-05-13T15:23:39.947Z,100345.50
2023-05-13T15:26:44.127Z,100336.94
2023-05-13T15:29:46.891Z,100343.16
2023-05-13T15:32:49.737Z,100335.19
2023-05-13T15:35:52.727Z,100337.31
2023-05-13T15:38:55.479Z,100339.13
2023-05-13T15:41:59.604Z,100331.59
2023-05-13T15:45:02.642Z,100342.38
2023-05-13T15:48:06.070Z,100329.81
2023-05-13T15:51:09.073Z,100335.47
2023-05-13T15:54:11.919Z,100327.66
2023-05-13T15:57:18.147Z,100327.81
2023-05-13T16:00:21.453Z,100322.03
2023-05-13T16:03:24.485Z,100314.78
2023-05-13T16:06:27.224Z,100319.78
2023-05-13T16:09:29.872Z,100313.88
2023-05-13T16:12:34.201Z,100312.56
2023-05-13T16:15:37.036Z,100304.19
2023-05-13T16:18:40.482Z,100310.22
2023-05-13T16:21:43.232Z,100309.50
2023-05-13T16:24:45.906Z,100317.97
2023-05-13T16:27:49.917Z,100309.34
2023-05-13T16:30:56.231Z,100314.09
2023-05-13T16:34:04.084Z,100312.88
2023-05-13T16:37:06.758Z,100313.22
2023-05-13T16:40:11.554Z,100315.66
2023-05-13T16:43:15.691Z,100324.69
2023-05-13T16:46:18.333Z,100327.25
2023-05-13T16:49:22.998Z,100327.72
2023-05-13T16:52:26.333Z,100317.47
2023-05-13T16:55:29.173Z,100322.22
2023-05-13T16:58:33.160Z,100326.81
2023-05-13T17:01:35.961Z,100321.97
2023-05-13T17:04:38.697Z,100322.13
2023-05-13T17:07:41.571Z,100319.97
2023-05-13T17:10:44.341Z,100325.50
2023-05-13T17:13:48.374Z,100323.03
2023-05-13T17:16:52.268Z,100328.09
2023-05-13T17:19:55.795Z,100321.22
2023-05-13T17:23:04.509Z,100325.72
2023-05-13T17:26:07.945Z,100324.56
2023-05-13T17:29:13.694Z,100324.38
2023-05-13T17:32:16.914Z,100328.09
2023-05-13T17:35:20.306Z,100328.19
2023-05-13T17:38:23.845Z,100334.25
2023-05-13T17:41:27.573Z,100339.50
2023-05-13T17:44:32.373Z,100335.00
2023-05-13T17:47:35.569Z,100333.91
2023-05-13T17:50:38.629Z,100336.19
2023-05-13T17:53:41.300Z,100339.13
2023-05-13T17:56:44.058Z,100339.66
2023-05-13T17:59:48.123Z,100341.19
2023-05-13T18:02:50.992Z,100351.28
2023-05-13T18:05:53.943Z,100349.78
2023-05-13T18:08:56.667Z,100361.56
2023-05-13T18:11:59.334Z,100366.06
2023-05-13T18:15:03.524Z,100364.66
2023-05-13T18:18:06.600Z,100367.03
2023-05-13T18:21:10.601Z,100366.00
2023-05-13T18:24:13.369Z,100369.47
2023-05-13T18:27:16.181Z,100363.91
2023-05-13T18:30:20.787Z,100365.59
2023-05-13T18:33:23.665Z,100378.13
2023-05-13T18:36:26.556Z,100377.13
2023-05-13T18:39:29.382Z,100392.47
2023-05-13T18:42:32.612Z,100390.41
2023-05-13T18:45:36.727Z,100396.38
2023-05-13T18:48:39.558Z,100393.59
2023-05-13T18:51:42.407Z,100404.13
2023-05-13T18:54:45.074Z,100406.56
2023-05-13T18:57:47.808Z,100400.81
2023-05-13T19:00:52.508Z,100406.38
2023-05-13T19:03:55.666Z,100393.94
2023-05-13T19:06:58.466Z,100419.31
2023-05-13T19:10:01.924Z,100418.84
2023-05-13T19:13:06.714Z,100432.06
2023-05-13T19:16:10.810Z,100433.59
2023-05-13T19:19:13.553Z,100442.34
2023-05-13T19:22:16.269Z,100442.50
2023-05-13T19:25:19.177Z,100456.91
2023-05-13T19:28:21.865Z,100457.53
2023-05-13T19:31:26.988Z,100462.47
2023-05-13T19:34:29.659Z,100462.81
2023-05-13T19:37:32.306Z,100467.81
2023-05-13T19:40:35.013Z,100468.09
2023-05-13T19:43:37.733Z,100445.53
2023-05-13T19:46:41.896Z,100472.41
2023-05-13T19:49:44.599Z,100479.00
2023-05-13T19:52:47.290Z,100481.28
2023-05-13T19:55:50.044Z,100480.78
2023-05-13T19:58:53.266Z,100477.41
2023-05-13T20:01:57.702Z,100475.84
2023-05-13T20:05:00.501Z,100491.28
2023-05-13T20:08:03.324Z,100491.97
2023-05-13T20:11:06.625Z,100490.94
2023-05-13T20:14:12.365Z,100479.63
2023-05-13T20:17:19.019Z,100480.50
2023-05-13T20:20:22.224Z,100479.88
2023-05-13T20:23:25.095Z,100483.72
2023-05-13T20:26:27.881Z,100482.97
2023-05-13T20:29:34.891Z,100482.16
2023-05-13T20:32:39.035Z,100478.66
2023-05-13T20:35:42.661Z,100480.56
2023-05-13T20:38:45.325Z,100477.16
2023-05-13T20:41:47.993Z,100473.63
2023-05-13T20:44:50.750Z,100480.91
2023-05-13T20:47:59.132Z,100478.66
2023-05-13T20:51:04.706Z,100479.88
2023-05-13T20:54:10.976Z,100484.81
2023-05-13T20:57:13.634Z,100482.69
2023-05-13T21:00:16.803Z,100471.44
2023-05-13T21:03:21.160Z,100475.84
2023-05-13T21:06:24.255Z,100473.84
2023-05-13T21:09:26.988Z,100481.81
2023-05-13T21:12:29.983Z,100477.06
2023-05-13T21:15:32.760Z,100467.22
2023-05-13T21:18:37.050Z,100472.41
2023-05-13T21:21:39.837Z,100453.44
2023-05-13T21:24:42.710Z,100485.16
2023-05-13T21:27:45.948Z,100474.34
2023-05-13T21:30:48.671Z,100470.03
2023-05-13T21:33:52.712Z,100466.34
2023-05-13T21:36:55.419Z,100476.00
2023-05-13T21:39:58.208Z,100476.78
2023-05-13T21:43:00.926Z,100483.41
2023-05-13T21:46:03.689Z,100477.69
2023-05-13T21:49:07.739Z,100472.78
2023-05-13T21:52:10.655Z,100476.81
2023-05-13T21:55:13.431Z,100475.50
2023-05-13T21:58:18.393Z,100477.59
2023-05-13T22:01:24.327Z,100482.25
2023-05-13T22:04:28.591Z,100477.75
2023-05-13T22:07:31.326Z,100475.84
2023-05-13T22:10:34.010Z,100483.03
2023-05-13T22:13:36.682Z,100483.13
2023-05-13T22:16:41.602Z,100480.31
2023-05-13T22:19:45.869Z,100472.31
2023-05-13T22:22:48.748Z,100471.50
2023-05-13T22:25:51.552Z,100468.16
2023-05-13T22:28:54.371Z,100461.47
2023-05-13T22:31:57.789Z,100464.59
2023-05-13T22:35:01.973Z,100465.03
2023-05-13T22:38:04.998Z,100466.31
2023-05-13T22:41:07.688Z,100460.25
2023-05-13T22:44:10.504Z,100465.03
2023-05-13T22:47:13.137Z,100466.09
2023-05-13T22:50:17.139Z,100468.41
2023-05-13T22:53:19.828Z,100472.34
2023-05-13T22:56:22.705Z,100468.41
2023-05-13T22:59:26.725Z,100469.53
2023-05-13T23:02:29.544Z,100468.34
2023-05-13T23:05:33.749Z,100458.09
2023-05-13T23:08:36.435Z,100456.53
2023-05-13T23:11:39.343Z,100448.41
2023-05-13T23:14:41.986Z,100454.38
2023-05-13T23:17:44.761Z,100457.25
2023-05-13T23:20:51.947Z,100452.81
2023-05-13T23:23:54.670Z,100456.66
2023-05-13T23:26:57.413Z,100458.63
2023-05-13T23:30:00.275Z,100458.63
2023-05-13T23:33:03.402Z,100458.00
2023-05-13T23:36:08.080Z,100447.28
2023-05-13T23:39:10.816Z,100452.00
2023-05-13T23:42:13.523Z,100439.44
2023-05-13T23:45:16.456Z,100437.75
2023-05-13T23:48:19.173Z,100445.16
2023-05-13T23:51:23.200Z,100438.28
2023-05-13T23:54:25.917Z,100439.44
2023-05-13T23:57:28.755Z,100440.47
